Česky Dansk Deutsch English Español Suomi Français Magyar Italiano Nederlands norsk Polski Português svenska Türkçe

 

Het Weer

Torp (Noorwegen)

21:50, 16 augustus 2016 (GMT)

NWNNE
WE
SWSSE
Home            
Torp Oseberg Rygge Skien-Geiteryggen Notodden Oslo / Fornebu Oslo / Gardermoen Trollhattan Private Satenas Dagali Kristiansand / Kjevik Karlstad Karlstad Flygplats Goteborg / Save Sindal Flyveplads Fagernes Leirin Goteborg / Landvetter Skovde Flygplats Aalborg Lista Flyplass Thisted Lufthavn Voss-Bo Stavanger / Sola

Om een weerknop op uw website of weblog te plaatsen, copieer onderstaande code en plak die in uw pagina. In het eerste vakje staat HTML-code, in het tweede vakje UBB-code.


Add to Google

Details

Wind speed:1 bf, 2 kn, 1.0 m/s, 2.3 miles/h, 3.7 km/h
Wind direction:Variable
Visibility:Greater than 10000 m, 10 km, 32800 ft, 6.2 miles
Temperature:14°C, 57°F
Dew-point:14°C, 57°F
Atmospheric pressure:1019 hPa, 764.3 mmHg, 30.09 inHg, 1.006 atm
Relative humidity:100.0 %
METAR:ENTO 162150Z AUTO VRB02KT 9999 NCD 14/14 Q1019

Snelkoppelingen

Actuele weersinformatie van de hele wereld. Voeg locaties toe met het plus (+) symbool. Deze snelkoppelingen kunnen worden toegevoegd aan Google.

Lid van de Technetium groep

website free tracking
StatCounter NetStat W3C Validator

15-08-2022 09:38:10
astro.technetium.be money.technetium.be phote.technetium.be tafeltennistafel.technetium.be www.ligfiets.net